createdAt,value
2022-12-23T00:00:52.651Z,91.99
2022-12-23T00:01:52.745Z,91.99
2022-12-23T00:02:52.876Z,91.88
2022-12-23T00:03:52.674Z,91.99
2022-12-23T00:04:52.558Z,92.03
2022-12-23T00:05:52.546Z,92.13
2022-12-23T00:06:52.542Z,92.24
2022-12-23T00:07:52.558Z,92.34
2022-12-23T00:08:52.528Z,92.34
2022-12-23T00:09:52.507Z,92.34
2022-12-23T00:10:52.490Z,92.29
2022-12-23T00:11:52.485Z,92.29
2022-12-23T00:12:52.475Z,92.29
2022-12-23T00:13:52.458Z,92.40
2022-12-23T00:14:52.447Z,92.29
2022-12-23T00:15:52.450Z,92.29
2022-12-23T00:16:52.512Z,92.40
2022-12-23T00:17:52.440Z,92.29
2022-12-23T00:18:52.401Z,92.40
2022-12-23T00:19:52.393Z,92.40
2022-12-23T00:20:52.378Z,92.44
2022-12-23T00:21:52.377Z,92.54
2022-12-23T00:22:52.361Z,92.65
2022-12-23T00:23:52.378Z,92.65
2022-12-23T00:24:52.334Z,92.75
2022-12-23T00:25:52.325Z,92.75
2022-12-23T00:26:52.319Z,92.75
2022-12-23T00:27:52.309Z,92.85
2022-12-23T00:28:52.299Z,92.85
2022-12-23T00:29:52.295Z,92.96
2022-12-23T00:30:52.270Z,92.96
2022-12-23T00:31:52.351Z,92.96
2022-12-23T00:32:52.246Z,93.06
2022-12-23T00:33:52.263Z,93.16
2022-12-23T00:34:52.262Z,93.16
2022-12-23T00:35:52.297Z,93.16
2022-12-23T00:36:52.254Z,93.12
2022-12-23T00:37:52.213Z,93.22
2022-12-23T00:38:52.237Z,93.12
2022-12-23T00:39:55.077Z,93.12
2022-12-23T00:40:52.202Z,93.12
2022-12-23T00:41:52.202Z,93.12
2022-12-23T00:42:52.133Z,93.12
2022-12-23T00:43:52.136Z,93.12
2022-12-23T00:44:52.112Z,93.01
2022-12-23T00:45:52.215Z,93.12
2022-12-23T00:46:52.127Z,93.12
2022-12-23T00:47:52.079Z,93.12
2022-12-23T00:48:52.068Z,93.16
2022-12-23T00:49:52.087Z,93.16
2022-12-23T00:50:52.045Z,93.26
2022-12-23T00:51:52.035Z,93.26
2022-12-23T00:52:52.041Z,93.22
2022-12-23T00:53:52.019Z,93.37
2022-12-23T00:54:52.008Z,93.43
2022-12-23T00:55:51.993Z,93.22
2022-12-23T00:56:51.995Z,93.12
2022-12-23T00:57:52.000Z,93.12
2022-12-23T00:58:51.961Z,93.16
2022-12-23T00:59:51.946Z,93.26
2022-12-23T01:00:52.027Z,93.26
2022-12-23T01:01:52.096Z,93.37
2022-12-23T01:02:52.064Z,93.37
2022-12-23T01:03:51.948Z,93.26
2022-12-23T01:04:51.922Z,93.37
2022-12-23T01:05:51.923Z,93.37
2022-12-23T01:06:51.887Z,93.37
2022-12-23T01:07:51.857Z,93.37
2022-12-23T01:08:51.853Z,93.47
2022-12-23T01:09:51.845Z,93.32
2022-12-23T01:10:51.822Z,93.22
2022-12-23T01:11:51.828Z,93.22
2022-12-23T01:12:51.815Z,93.12
2022-12-23T01:13:51.797Z,93.16
2022-12-23T01:14:51.790Z,93.16
2022-12-23T01:15:51.775Z,93.26
2022-12-23T01:16:51.805Z,93.26
2022-12-23T01:17:51.741Z,93.26
2022-12-23T01:18:51.751Z,93.37
2022-12-23T01:19:51.785Z,93.37
2022-12-23T01:20:51.724Z,93.37
2022-12-23T01:21:51.739Z,93.47
2022-12-23T01:22:51.696Z,93.47
2022-12-23T01:23:51.681Z,93.47
2022-12-23T01:24:51.682Z,93.37
2022-12-23T01:25:51.665Z,93.37
2022-12-23T01:26:51.656Z,93.37
2022-12-23T01:27:51.640Z,93.26
2022-12-23T01:28:51.623Z,93.16
2022-12-23T01:29:51.611Z,93.16
2022-12-23T01:30:51.609Z,93.16
2022-12-23T01:31:51.756Z,93.16
2022-12-23T01:32:51.581Z,93.26
2022-12-23T01:33:51.571Z,93.16
2022-12-23T01:34:51.567Z,93.16
2022-12-23T01:35:51.544Z,93.26
2022-12-23T01:36:51.540Z,93.16
2022-12-23T01:37:51.672Z,93.06
2022-12-23T01:38:51.525Z,93.06
2022-12-23T01:39:51.512Z,93.06
2022-12-23T01:40:51.505Z,93.06
2022-12-23T01:41:51.508Z,93.06
2022-12-23T01:42:51.469Z,93.16
2022-12-23T01:43:51.459Z,93.16
2022-12-23T01:44:51.485Z,93.26
2022-12-23T01:45:51.535Z,93.16
2022-12-23T01:46:51.434Z,93.16
2022-12-23T01:47:51.426Z,93.26
2022-12-23T01:48:51.403Z,93.16
2022-12-23T01:49:51.401Z,93.26
2022-12-23T01:50:51.376Z,93.26
2022-12-23T01:51:51.375Z,93.26
2022-12-23T01:52:51.366Z,93.26
2022-12-23T01:53:51.437Z,93.26
2022-12-23T01:54:51.333Z,93.37
2022-12-23T01:55:51.323Z,93.37
2022-12-23T01:56:51.315Z,93.43
2022-12-23T01:57:51.297Z,93.43
2022-12-23T01:58:51.287Z,93.22
2022-12-23T01:59:51.292Z,93.22
2022-12-23T02:00:51.352Z,93.22
2022-12-23T02:01:51.349Z,93.12
2022-12-23T02:02:51.338Z,93.01
2022-12-23T02:03:51.235Z,93.01
2022-12-23T02:04:51.234Z,92.91
2022-12-23T02:05:51.219Z,92.91
2022-12-23T02:06:51.205Z,92.91
2022-12-23T02:07:51.185Z,92.91
2022-12-23T02:08:51.187Z,93.01
2022-12-23T02:09:51.200Z,92.91
2022-12-23T02:10:51.167Z,92.81
2022-12-23T02:11:51.145Z,92.91
2022-12-23T02:12:51.134Z,93.06
2022-12-23T02:13:51.120Z,93.16
2022-12-23T02:14:51.120Z,93.26
2022-12-23T02:15:51.107Z,93.47
2022-12-23T02:16:51.158Z,93.47
2022-12-23T02:17:51.086Z,93.57
2022-12-23T02:18:51.070Z,93.68
2022-12-23T02:19:51.066Z,93.68
2022-12-23T02:20:51.040Z,93.68
2022-12-23T02:21:51.038Z,93.68
2022-12-23T02:22:51.040Z,93.68
2022-12-23T02:23:51.047Z,93.78
2022-12-23T02:24:50.994Z,93.78
2022-12-23T02:25:51.048Z,93.78
2022-12-23T02:26:50.977Z,93.88
2022-12-23T02:27:50.966Z,93.88
2022-12-23T02:28:50.949Z,93.88
2022-12-23T02:29:50.947Z,93.98
2022-12-23T02:30:50.987Z,93.98
2022-12-23T02:31:50.916Z,94.09
2022-12-23T02:32:50.925Z,94.09
2022-12-23T02:33:50.897Z,94.04
2022-12-23T02:34:50.889Z,94.04
2022-12-23T02:35:50.881Z,94.04
2022-12-23T02:36:50.869Z,94.15
2022-12-23T02:37:50.855Z,94.15
2022-12-23T02:38:50.839Z,94.04
2022-12-23T02:39:50.834Z,94.15
2022-12-23T02:40:50.824Z,94.19
2022-12-23T02:41:50.848Z,94.19
2022-12-23T02:42:50.804Z,94.29
2022-12-23T02:43:50.794Z,94.29
2022-12-23T02:44:50.780Z,94.29
2022-12-23T02:45:50.785Z,94.40
2022-12-23T02:46:50.755Z,94.50
2022-12-23T02:47:50.740Z,94.60
2022-12-23T02:48:50.733Z,94.56
2022-12-23T02:49:50.722Z,94.56
2022-12-23T02:50:50.703Z,94.45
2022-12-23T02:51:50.703Z,94.45
2022-12-23T02:52:50.688Z,94.56
2022-12-23T02:53:50.676Z,94.45
2022-12-23T02:54:50.666Z,94.56
2022-12-23T02:55:50.657Z,94.56
2022-12-23T02:56:50.657Z,94.56
2022-12-23T02:57:50.660Z,94.56
2022-12-23T02:58:50.620Z,94.66
2022-12-23T02:59:50.607Z,94.76
2022-12-23T03:00:50.603Z,94.66
2022-12-23T03:01:50.832Z,94.66
2022-12-23T03:02:50.806Z,94.76
2022-12-23T03:03:50.588Z,94.76
2022-12-23T03:04:50.556Z,94.66
2022-12-23T03:05:50.539Z,94.66
2022-12-23T03:06:50.538Z,94.66
2022-12-23T03:07:50.513Z,94.56
2022-12-23T03:08:50.521Z,94.41
2022-12-23T03:09:50.502Z,94.36
2022-12-23T03:10:50.489Z,94.45
2022-12-23T03:11:50.479Z,94.36
2022-12-23T03:12:50.471Z,94.36
2022-12-23T03:13:50.478Z,94.36
2022-12-23T03:14:50.458Z,94.36
2022-12-23T03:15:50.479Z,94.36
2022-12-23T03:16:50.427Z,94.45
2022-12-23T03:17:50.414Z,94.45
2022-12-23T03:18:50.409Z,94.45
2022-12-23T03:19:50.451Z,94.45
2022-12-23T03:20:50.372Z,94.45
2022-12-23T03:21:50.371Z,94.45
2022-12-23T03:22:50.349Z,94.45
2022-12-23T03:23:55.277Z,94.56
2022-12-23T03:24:50.338Z,94.66
2022-12-23T03:25:50.321Z,94.76
2022-12-23T03:26:50.316Z,94.66
2022-12-23T03:27:50.291Z,94.66
2022-12-23T03:28:50.287Z,94.76
2022-12-23T03:29:50.294Z,94.87
2022-12-23T03:30:50.388Z,94.87
2022-12-23T03:31:50.246Z,94.97
2022-12-23T03:32:50.241Z,94.87
2022-12-23T03:33:50.239Z,94.76
2022-12-23T03:34:50.234Z,94.87
2022-12-23T03:35:50.220Z,94.87
2022-12-23T03:36:50.211Z,94.87
2022-12-23T03:37:50.189Z,94.87
2022-12-23T03:38:50.174Z,94.76
2022-12-23T03:39:50.161Z,94.87
2022-12-23T03:40:50.151Z,94.76
2022-12-23T03:41:50.134Z,94.97
2022-12-23T03:42:50.133Z,94.97
2022-12-23T03:43:51.244Z,94.97
2022-12-23T03:45:11.085Z,94.87
2022-12-23T03:45:50.118Z,94.97
2022-12-23T03:46:50.208Z,94.97
2022-12-23T03:47:50.078Z,94.97
2022-12-23T03:48:50.083Z,94.97
2022-12-23T03:49:50.059Z,95.08
2022-12-23T03:50:50.047Z,95.08
2022-12-23T03:51:50.023Z,95.17
2022-12-23T03:52:50.016Z,95.17
2022-12-23T03:53:50.011Z,95.17
2022-12-23T03:54:49.997Z,95.38
2022-12-23T03:55:49.986Z,95.38
2022-12-23T03:56:49.977Z,95.28
2022-12-23T03:57:49.981Z,95.17
2022-12-23T03:58:49.960Z,95.17
2022-12-23T03:59:49.943Z,95.28
2022-12-23T04:00:49.924Z,95.17
2022-12-23T04:01:50.070Z,95.17
2022-12-23T04:02:50.132Z,95.08
2022-12-23T04:03:50.055Z,95.17
2022-12-23T04:04:49.919Z,95.17
2022-12-23T04:05:49.877Z,95.17
2022-12-23T04:06:49.865Z,95.17
2022-12-23T04:07:49.867Z,95.17
2022-12-23T04:08:49.843Z,95.17
2022-12-23T04:09:49.833Z,95.28
2022-12-23T04:10:49.823Z,95.28
2022-12-23T04:11:49.802Z,95.28
2022-12-23T04:12:49.800Z,95.28
2022-12-23T04:13:49.780Z,95.28
2022-12-23T04:14:49.782Z,95.28
2022-12-23T04:15:49.800Z,95.38
2022-12-23T04:16:49.754Z,95.28
2022-12-23T04:17:49.775Z,95.28
2022-12-23T04:18:49.724Z,95.38
2022-12-23T04:19:49.720Z,95.28
2022-12-23T04:20:49.709Z,95.28
2022-12-23T04:21:49.696Z,95.28
2022-12-23T04:22:49.727Z,95.28
2022-12-23T04:23:49.684Z,95.13
2022-12-23T04:24:49.680Z,95.17
2022-12-23T04:25:49.653Z,95.08
2022-12-23T04:26:49.641Z,95.08
2022-12-23T04:27:49.630Z,95.08
2022-12-23T04:28:49.623Z,95.17
2022-12-23T04:29:49.614Z,95.08
2022-12-23T04:30:49.596Z,94.97
2022-12-23T04:31:49.645Z,95.08
2022-12-23T04:32:49.579Z,95.08
2022-12-23T04:33:49.592Z,95.08
2022-12-23T04:34:49.557Z,95.17
2022-12-23T04:35:49.576Z,95.17
2022-12-23T04:36:49.525Z,95.28
2022-12-23T04:37:49.513Z,95.28
2022-12-23T04:38:49.528Z,95.28
2022-12-23T04:39:49.497Z,95.17
2022-12-23T04:40:49.489Z,95.28
2022-12-23T04:41:49.476Z,95.28
2022-12-23T04:42:49.467Z,95.17
2022-12-23T04:43:53.141Z,95.17
2022-12-23T04:44:49.447Z,95.17
2022-12-23T04:45:49.436Z,95.17
2022-12-23T04:46:49.515Z,95.17
2022-12-23T04:47:49.415Z,95.17
2022-12-23T04:48:49.418Z,95.17
2022-12-23T04:49:49.411Z,95.17
2022-12-23T04:50:49.373Z,95.28
2022-12-23T04:51:49.356Z,95.13
2022-12-23T04:52:49.367Z,95.13
2022-12-23T04:53:49.334Z,95.23
2022-12-23T04:54:49.335Z,95.13
2022-12-23T04:55:49.315Z,95.17
2022-12-23T04:56:49.299Z,95.23
2022-12-23T04:57:49.287Z,95.28
2022-12-23T04:58:49.284Z,95.17
2022-12-23T04:59:49.265Z,95.23
2022-12-23T05:00:49.369Z,95.23
2022-12-23T05:01:49.433Z,95.23
2022-12-23T05:02:49.395Z,95.23
2022-12-23T05:03:49.233Z,95.23
2022-12-23T05:04:49.213Z,95.23
2022-12-23T05:05:49.230Z,95.28
2022-12-23T05:06:49.188Z,95.34
2022-12-23T05:07:49.182Z,95.34
2022-12-23T05:08:49.164Z,95.23
2022-12-23T05:09:49.161Z,95.23
2022-12-23T05:10:49.144Z,95.23
2022-12-23T05:11:49.133Z,95.28
2022-12-23T05:12:49.125Z,95.28
2022-12-23T05:13:49.122Z,95.28
2022-12-23T05:14:49.099Z,95.28
2022-12-23T05:15:49.122Z,95.38
2022-12-23T05:16:49.198Z,95.38
2022-12-23T05:17:49.072Z,95.48
2022-12-23T05:18:49.056Z,95.48
2022-12-23T05:19:49.040Z,95.59
2022-12-23T05:20:49.044Z,95.59
2022-12-23T05:21:49.114Z,95.59
2022-12-23T05:22:49.015Z,95.59
2022-12-23T05:23:49.001Z,95.69
2022-12-23T05:24:48.984Z,95.69
2022-12-23T05:25:48.978Z,95.69
2022-12-23T05:26:52.832Z,95.69
2022-12-23T05:27:48.957Z,95.80
2022-12-23T05:28:48.946Z,95.75
2022-12-23T05:29:48.929Z,95.80
2022-12-23T05:30:48.918Z,95.75
2022-12-23T05:31:48.959Z,95.75
2022-12-23T05:32:48.901Z,95.75
2022-12-23T05:33:48.956Z,95.85
2022-12-23T05:34:48.889Z,95.75
2022-12-23T05:35:48.880Z,95.64
2022-12-23T05:36:48.859Z,95.64
2022-12-23T05:37:48.879Z,95.69
2022-12-23T05:38:48.831Z,95.80
2022-12-23T05:39:48.822Z,95.80
2022-12-23T05:40:48.823Z,95.80
2022-12-23T05:41:48.798Z,95.80
2022-12-23T05:42:48.793Z,95.89
2022-12-23T05:43:48.773Z,95.89
2022-12-23T05:44:48.780Z,95.89
2022-12-23T05:45:48.798Z,96.00
2022-12-23T05:46:48.744Z,96.00
2022-12-23T05:47:48.751Z,96.00
2022-12-23T05:48:48.737Z,96.00
2022-12-23T05:49:48.713Z,96.00
2022-12-23T05:50:48.710Z,96.00
2022-12-23T05:51:48.693Z,96.10
2022-12-23T05:52:48.685Z,96.10
2022-12-23T05:53:48.695Z,96.10
2022-12-23T05:54:48.655Z,96.16
2022-12-23T05:55:48.641Z,96.16
2022-12-23T05:56:48.629Z,96.16
2022-12-23T05:57:48.635Z,96.16
2022-12-23T05:58:48.609Z,96.16
2022-12-23T05:59:48.603Z,96.16
2022-12-23T06:00:48.597Z,96.16
2022-12-23T06:01:48.709Z,96.16
2022-12-23T06:02:53.888Z,96.16
2022-12-23T06:03:48.636Z,96.16
2022-12-23T06:04:48.543Z,96.16
2022-12-23T06:05:48.530Z,96.27
2022-12-23T06:06:48.550Z,96.27
2022-12-23T06:07:48.509Z,96.27
2022-12-23T06:08:49.539Z,96.27
2022-12-23T06:09:48.512Z,96.27
2022-12-23T06:10:48.485Z,96.27
2022-12-23T06:11:48.464Z,96.27
2022-12-23T06:12:48.457Z,96.27
2022-12-23T06:13:48.449Z,96.27
2022-12-23T06:14:48.456Z,96.36
2022-12-23T06:15:48.441Z,96.36
2022-12-23T06:16:48.432Z,96.36
2022-12-23T06:17:48.403Z,96.36
2022-12-23T06:18:48.387Z,96.36
2022-12-23T06:19:48.378Z,96.47
2022-12-23T06:20:48.380Z,96.47
2022-12-23T06:21:48.354Z,96.47
2022-12-23T06:22:48.366Z,96.47
2022-12-23T06:23:48.333Z,96.47
2022-12-23T06:24:48.334Z,96.47
2022-12-23T06:25:48.335Z,96.57
2022-12-23T06:26:53.325Z,96.57
2022-12-23T06:27:48.300Z,96.57
2022-12-23T06:28:48.283Z,96.57
2022-12-23T06:29:48.273Z,96.57
2022-12-23T06:30:48.253Z,96.57
2022-12-23T06:31:48.297Z,96.57
2022-12-23T06:32:48.245Z,96.67
2022-12-23T06:33:48.229Z,96.67
2022-12-23T06:34:48.216Z,96.67
2022-12-23T06:35:48.198Z,96.67
2022-12-23T06:36:48.195Z,96.67
2022-12-23T06:37:48.181Z,96.67
2022-12-23T06:38:48.164Z,96.67
2022-12-23T06:39:48.162Z,96.78
2022-12-23T06:40:48.151Z,96.73
2022-12-23T06:41:48.166Z,96.73
2022-12-23T06:42:48.130Z,96.73
2022-12-23T06:43:53.901Z,96.73
2022-12-23T06:44:48.102Z,96.73
2022-12-23T06:45:48.133Z,96.73
2022-12-23T06:46:48.104Z,96.73
2022-12-23T06:47:48.062Z,96.63
2022-12-23T06:48:48.064Z,96.63
2022-12-23T06:49:48.055Z,96.63
2022-12-23T06:50:48.031Z,96.63
2022-12-23T06:51:48.018Z,96.73
2022-12-23T06:52:48.015Z,96.73
2022-12-23T06:53:48.005Z,96.73
2022-12-23T06:54:47.999Z,96.73
2022-12-23T06:55:47.987Z,96.73
2022-12-23T06:56:47.969Z,96.73
2022-12-23T06:57:47.979Z,96.73
2022-12-23T06:58:47.962Z,96.83
2022-12-23T06:59:47.938Z,96.83
2022-12-23T07:00:47.974Z,96.83
2022-12-23T07:01:48.112Z,96.83
2022-12-23T07:02:48.041Z,96.83
2022-12-23T07:03:47.896Z,96.94
2022-12-23T07:04:47.883Z,96.94
2022-12-23T07:05:49.872Z,96.94
2022-12-23T07:06:47.860Z,96.94
2022-12-23T07:07:47.851Z,96.94
2022-12-23T07:08:47.838Z,96.94
2022-12-23T07:09:47.820Z,96.94
2022-12-23T07:10:47.815Z,96.94
2022-12-23T07:11:47.798Z,96.94
2022-12-23T07:12:50.841Z,96.89
2022-12-23T07:13:47.805Z,96.89
2022-12-23T07:14:47.764Z,96.89
2022-12-23T07:15:47.799Z,97.00
2022-12-23T07:16:47.793Z,97.00
2022-12-23T07:17:47.751Z,97.00
2022-12-23T07:18:47.732Z,97.00
2022-12-23T07:19:47.718Z,97.00
2022-12-23T07:20:47.704Z,96.89
2022-12-23T07:21:47.698Z,96.89
2022-12-23T07:22:47.685Z,96.89
2022-12-23T07:23:47.700Z,96.94
2022-12-23T07:24:47.666Z,97.04
2022-12-23T07:25:47.660Z,97.00
2022-12-23T07:26:47.652Z,97.00
2022-12-23T07:27:47.636Z,97.00
2022-12-23T07:28:49.647Z,97.00
2022-12-23T07:29:47.615Z,97.00
2022-12-23T07:30:47.599Z,97.00
2022-12-23T07:31:47.746Z,97.00
2022-12-23T07:32:47.573Z,97.00
2022-12-23T07:33:47.562Z,97.00
2022-12-23T07:34:47.550Z,97.00
2022-12-23T07:35:47.539Z,97.00
2022-12-23T07:36:47.525Z,97.00
2022-12-23T07:37:49.510Z,97.00
2022-12-23T07:38:47.508Z,96.89
2022-12-23T07:39:47.493Z,96.89
2022-12-23T07:40:47.483Z,96.89
2022-12-23T07:41:47.476Z,96.89
2022-12-23T07:42:47.452Z,96.89
2022-12-23T07:43:47.460Z,96.89
2022-12-23T07:44:47.485Z,97.00
2022-12-23T07:45:47.426Z,97.00
2022-12-23T07:46:47.521Z,96.85
2022-12-23T07:47:47.403Z,96.85
2022-12-23T07:48:47.395Z,96.85
2022-12-23T07:49:47.377Z,96.75
2022-12-23T07:50:47.366Z,96.75
2022-12-23T07:51:47.370Z,96.75
2022-12-23T07:52:47.343Z,96.75
2022-12-23T07:53:47.347Z,96.64
2022-12-23T07:54:47.329Z,96.75
2022-12-23T07:55:52.990Z,96.64
2022-12-23T07:56:47.312Z,96.64
2022-12-23T07:57:47.288Z,96.54
2022-12-23T07:58:47.278Z,96.44
2022-12-23T07:59:47.284Z,96.44
2022-12-23T08:00:47.294Z,96.33
2022-12-23T08:01:47.391Z,96.29
2022-12-23T08:02:47.365Z,96.19
2022-12-23T08:03:47.292Z,96.19
2022-12-23T08:04:49.254Z,96.08
2022-12-23T08:05:47.206Z,96.08
2022-12-23T08:06:47.202Z,95.98
2022-12-23T08:07:47.204Z,95.88
2022-12-23T08:08:47.236Z,95.88
2022-12-23T08:09:47.175Z,95.78
2022-12-23T08:10:48.523Z,95.78
2022-12-23T08:11:47.150Z,95.78
2022-12-23T08:12:47.158Z,95.78
2022-12-23T08:13:47.132Z,95.78
2022-12-23T08:14:47.112Z,95.67
2022-12-23T08:15:47.139Z,95.67
2022-12-23T08:16:47.179Z,95.67
2022-12-23T08:17:47.082Z,95.57
2022-12-23T08:18:47.058Z,95.57
2022-12-23T08:19:47.040Z,95.47
2022-12-23T08:20:47.045Z,95.47
2022-12-23T08:21:47.036Z,95.37
2022-12-23T08:22:47.014Z,95.32
2022-12-23T08:23:47.009Z,95.22
2022-12-23T08:24:47.031Z,95.12
2022-12-23T08:25:46.981Z,95.01
2022-12-23T08:26:46.973Z,94.91
2022-12-23T08:27:46.959Z,94.81
2022-12-23T08:28:46.942Z,94.81
2022-12-23T08:29:47.032Z,94.70
2022-12-23T08:30:46.983Z,94.70
2022-12-23T08:31:46.920Z,94.40
2022-12-23T08:32:46.920Z,94.29
2022-12-23T08:33:46.907Z,94.29
2022-12-23T08:34:46.889Z,94.19
2022-12-23T08:35:46.873Z,94.09
2022-12-23T08:36:46.862Z,94.09
2022-12-23T08:37:46.856Z,93.89
2022-12-23T08:38:46.829Z,93.82
2022-12-23T08:39:47.028Z,93.93
2022-12-23T08:40:46.823Z,94.03
2022-12-23T08:41:46.798Z,94.14
2022-12-23T08:42:46.807Z,94.18
2022-12-23T08:43:46.773Z,94.28
2022-12-23T08:44:46.779Z,94.39
2022-12-23T08:45:46.807Z,94.39
2022-12-23T08:46:46.961Z,94.48
2022-12-23T08:47:46.751Z,94.44
2022-12-23T08:48:49.424Z,94.44
2022-12-23T08:49:46.709Z,94.44
2022-12-23T08:50:46.707Z,94.44
2022-12-23T08:51:46.693Z,94.44
2022-12-23T08:52:46.682Z,94.44
2022-12-23T08:53:46.693Z,94.54
2022-12-23T08:54:46.662Z,94.44
2022-12-23T08:55:46.657Z,94.34
2022-12-23T08:56:46.629Z,94.34
2022-12-23T08:57:46.640Z,94.34
2022-12-23T08:58:46.606Z,94.44
2022-12-23T08:59:46.598Z,94.29
2022-12-23T09:00:46.587Z,94.29
2022-12-23T09:01:46.785Z,94.19
2022-12-23T09:02:46.907Z,94.09
2022-12-23T09:03:46.708Z,93.89
2022-12-23T09:04:46.588Z,93.68
2022-12-23T09:05:46.541Z,93.68
2022-12-23T09:06:46.564Z,93.58
2022-12-23T09:07:46.512Z,93.58
2022-12-23T09:08:46.498Z,93.58
2022-12-23T09:09:46.500Z,93.43
2022-12-23T09:10:46.483Z,93.43
2022-12-23T09:11:46.465Z,93.23
2022-12-23T09:12:46.461Z,93.23
2022-12-23T09:13:46.446Z,93.12
2022-12-23T09:14:46.439Z,93.02
2022-12-23T09:15:46.468Z,93.02
2022-12-23T09:16:46.422Z,92.92
2022-12-23T09:17:46.410Z,92.82
2022-12-23T09:18:46.399Z,92.82
2022-12-23T09:19:52.471Z,92.61
2022-12-23T09:20:46.411Z,92.51
2022-12-23T09:21:46.362Z,92.51
2022-12-23T09:22:46.357Z,92.45
2022-12-23T09:23:46.340Z,92.55
2022-12-23T09:24:46.329Z,92.61
2022-12-23T09:25:46.308Z,92.61
2022-12-23T09:26:46.298Z,92.71
2022-12-23T09:27:46.295Z,92.51
2022-12-23T09:28:46.282Z,92.51
2022-12-23T09:29:46.271Z,92.41
2022-12-23T09:30:46.311Z,92.41
2022-12-23T09:31:46.329Z,92.41
2022-12-23T09:32:46.232Z,92.41
2022-12-23T09:33:46.228Z,92.41
2022-12-23T09:34:46.223Z,92.51
2022-12-23T09:35:46.204Z,92.51
2022-12-23T09:36:50.390Z,92.51
2022-12-23T09:37:46.182Z,92.51
2022-12-23T09:38:46.178Z,92.41
2022-12-23T09:39:46.155Z,92.51
2022-12-23T09:40:46.150Z,92.51
2022-12-23T09:41:46.129Z,92.41
2022-12-23T09:42:46.125Z,92.30
2022-12-23T09:43:46.115Z,92.30
2022-12-23T09:44:46.103Z,92.30
2022-12-23T09:45:46.086Z,92.30
2022-12-23T09:46:46.140Z,92.35
2022-12-23T09:47:46.066Z,92.51
2022-12-23T09:48:46.057Z,92.51
2022-12-23T09:49:46.041Z,92.51
2022-12-23T09:50:46.038Z,92.51
2022-12-23T09:51:46.017Z,92.51
2022-12-23T09:52:46.041Z,92.41
2022-12-23T09:53:45.998Z,92.41
2022-12-23T09:54:46.134Z,92.51
2022-12-23T09:55:45.981Z,92.51
2022-12-23T09:56:45.962Z,92.51
2022-12-23T09:57:45.957Z,92.46
2022-12-23T09:58:45.961Z,92.46
2022-12-23T09:59:45.929Z,92.26
2022-12-23T10:00:45.920Z,92.16
2022-12-23T10:01:46.042Z,92.05
2022-12-23T10:02:46.201Z,92.05
2022-12-23T10:03:46.109Z,91.95
2022-12-23T10:04:45.887Z,91.85
2022-12-23T10:05:45.861Z,91.85
2022-12-23T10:06:45.860Z,91.90
2022-12-23T10:07:45.858Z,91.79
2022-12-23T10:08:45.867Z,91.90
2022-12-23T10:09:45.823Z,91.90
2022-12-23T10:10:45.806Z,91.90
2022-12-23T10:11:45.791Z,91.99
2022-12-23T10:12:45.797Z,91.95
2022-12-23T10:13:45.781Z,91.90
2022-12-23T10:14:45.771Z,91.90
2022-12-23T10:15:45.814Z,91.90
2022-12-23T10:16:45.858Z,91.85
2022-12-23T10:17:45.727Z,91.75
2022-12-23T10:18:45.723Z,91.75
2022-12-23T10:19:45.716Z,91.85
2022-12-23T10:20:45.701Z,91.85
2022-12-23T10:21:47.864Z,91.75
2022-12-23T10:22:45.689Z,91.75
2022-12-23T10:23:45.662Z,91.71
2022-12-23T10:24:45.702Z,91.60
2022-12-23T10:25:45.646Z,91.50
2022-12-23T10:26:45.635Z,91.30
2022-12-23T10:27:45.637Z,91.19
2022-12-23T10:28:45.628Z,90.94
2022-12-23T10:29:45.605Z,90.88
2022-12-23T10:31:45.682Z,90.47
2022-12-23T10:32:45.649Z,90.37
2022-12-23T10:33:45.555Z,90.37
2022-12-23T10:34:45.568Z,90.33
2022-12-23T10:35:45.526Z,90.33
2022-12-23T10:36:45.590Z,90.23
2022-12-23T10:37:45.505Z,90.13
2022-12-23T10:38:45.493Z,89.92
2022-12-23T10:39:45.483Z,89.82
2022-12-23T10:40:45.569Z,89.82
2022-12-23T10:41:45.470Z,89.82
2022-12-23T10:42:45.453Z,89.72
2022-12-23T10:43:45.456Z,89.82
2022-12-23T10:44:45.433Z,89.82
2022-12-23T10:45:45.412Z,89.67
2022-12-23T10:46:45.554Z,89.67
2022-12-23T10:47:45.396Z,89.47
2022-12-23T10:48:45.389Z,89.37
2022-12-23T10:49:45.382Z,89.27
2022-12-23T10:50:45.366Z,89.06
2022-12-23T10:51:45.344Z,88.86
2022-12-23T10:52:45.384Z,88.90
2022-12-23T10:53:45.324Z,89.00
2022-12-23T10:54:45.311Z,89.00
2022-12-23T10:55:45.311Z,89.20
2022-12-23T10:56:45.315Z,89.31
2022-12-23T10:57:45.285Z,89.37
2022-12-23T10:58:45.267Z,89.16
2022-12-23T10:59:45.274Z,89.06
2022-12-23T11:00:45.281Z,88.86
2022-12-23T11:01:45.551Z,88.75
2022-12-23T11:02:45.380Z,88.65
2022-12-23T11:03:45.285Z,88.75
2022-12-23T11:04:45.203Z,88.71
2022-12-23T11:05:45.198Z,88.61
2022-12-23T11:06:45.191Z,88.30
2022-12-23T11:07:46.194Z,88.30
2022-12-23T11:08:45.164Z,88.30
2022-12-23T11:09:45.150Z,88.20
2022-12-23T11:10:45.137Z,88.20
2022-12-23T11:11:45.133Z,88.00
2022-12-23T11:12:45.260Z,87.89
2022-12-23T11:13:45.103Z,87.79
2022-12-23T11:14:45.092Z,87.79
2022-12-23T11:15:45.076Z,87.69
2022-12-23T11:16:45.103Z,87.59
2022-12-23T11:17:45.055Z,87.38
2022-12-23T11:18:45.055Z,87.18
2022-12-23T11:19:45.055Z,87.18
2022-12-23T11:20:45.073Z,87.21
2022-12-23T11:21:45.014Z,87.42
2022-12-23T11:22:45.000Z,87.63
2022-12-23T11:23:44.989Z,87.73
2022-12-23T11:24:44.970Z,87.83
2022-12-23T11:25:44.966Z,87.93
2022-12-23T11:26:44.949Z,87.93
2022-12-23T11:27:44.949Z,87.93
2022-12-23T11:28:44.969Z,87.93
2022-12-23T11:29:44.921Z,87.83
2022-12-23T11:30:48.915Z,87.93
2022-12-23T11:31:44.976Z,88.04
2022-12-23T11:32:44.886Z,88.04
2022-12-23T11:33:44.875Z,88.07
2022-12-23T11:34:44.865Z,88.28
2022-12-23T11:35:44.949Z,88.28
2022-12-23T11:36:47.829Z,88.39
2022-12-23T11:37:44.837Z,88.24
2022-12-23T11:38:44.818Z,88.14
2022-12-23T11:39:44.813Z,88.24
2022-12-23T11:40:44.789Z,88.18
2022-12-23T11:41:44.791Z,88.28
2022-12-23T11:42:47.886Z,88.39
2022-12-23T11:43:44.759Z,88.49
2022-12-23T11:44:44.776Z,88.49
2022-12-23T11:45:44.802Z,88.59
2022-12-23T11:46:44.754Z,88.69
2022-12-23T11:47:44.717Z,88.69
2022-12-23T11:48:47.573Z,88.80
2022-12-23T11:49:44.695Z,88.80
2022-12-23T11:50:44.676Z,88.80
2022-12-23T11:51:44.678Z,88.80
2022-12-23T11:52:44.662Z,88.80
2022-12-23T11:53:44.664Z,88.80
2022-12-23T11:54:46.029Z,88.90
2022-12-23T11:55:44.631Z,88.90
2022-12-23T11:56:44.710Z,88.90
2022-12-23T11:57:44.613Z,88.90
2022-12-23T11:58:44.605Z,89.10
2022-12-23T11:59:44.578Z,89.10
2022-12-23T12:00:48.106Z,88.90
2022-12-23T12:01:44.574Z,88.90
2022-12-23T12:02:44.728Z,88.90
2022-12-23T12:03:44.580Z,88.90
2022-12-23T12:04:44.531Z,88.86
2022-12-23T12:05:44.507Z,88.86
2022-12-23T12:06:47.201Z,88.75
2022-12-23T12:07:44.514Z,88.86
2022-12-23T12:08:44.472Z,88.75
2022-12-23T12:09:44.473Z,88.65
2022-12-23T12:10:44.462Z,88.45
2022-12-23T12:11:44.437Z,88.24
2022-12-23T12:12:44.660Z,88.18
2022-12-23T12:13:44.476Z,88.18
2022-12-23T12:14:44.404Z,88.18
2022-12-23T12:15:44.406Z,88.28
2022-12-23T12:16:44.466Z,88.39
2022-12-23T12:17:44.419Z,88.39
2022-12-23T12:18:44.413Z,88.39
2022-12-23T12:19:44.369Z,88.45
2022-12-23T12:20:44.367Z,88.45
2022-12-23T12:21:44.328Z,88.45
2022-12-23T12:22:44.343Z,88.45
2022-12-23T12:23:44.327Z,88.34
2022-12-23T12:24:44.311Z,88.24
2022-12-23T12:25:44.330Z,88.24
2022-12-23T12:26:44.416Z,88.34
2022-12-23T12:27:44.318Z,88.24
2022-12-23T12:28:44.253Z,88.20
2022-12-23T12:29:44.236Z,88.10
2022-12-23T12:30:44.391Z,88.04
2022-12-23T12:31:44.249Z,88.04
2022-12-23T12:32:44.233Z,88.10
2022-12-23T12:33:44.201Z,88.04
2022-12-23T12:34:44.179Z,87.93
2022-12-23T12:35:44.188Z,88.04
2022-12-23T12:36:44.257Z,88.14
2022-12-23T12:37:44.153Z,88.14
2022-12-23T12:38:44.143Z,88.04
2022-12-23T12:39:44.142Z,88.24
2022-12-23T12:40:44.131Z,88.34
2022-12-23T12:41:44.124Z,88.45
2022-12-23T12:42:44.100Z,88.40
2022-12-23T12:43:44.104Z,88.40
2022-12-23T12:44:44.072Z,88.16
2022-12-23T12:45:44.127Z,87.79
2022-12-23T12:46:44.043Z,87.28
2022-12-23T12:47:53.854Z,86.97
2022-12-23T12:48:44.055Z,86.97
2022-12-23T12:49:44.027Z,86.71
2022-12-23T12:50:44.053Z,86.81
2022-12-23T12:51:43.997Z,86.97
2022-12-23T12:52:44.008Z,86.97
2022-12-23T12:53:49.972Z,86.83